sensor_id;sensor_type;location;lat;lon;timestamp;temperature;humidity
6052;DHT22;3054;51.204;4.430;2022-08-04T00:02:24;28.15;53.91
6052;DHT22;3054;51.204;4.430;2022-08-04T00:04:56;28.14;53.88
6052;DHT22;3054;51.204;4.430;2022-08-04T00:07:35;28.12;53.90
6052;DHT22;3054;51.204;4.430;2022-08-04T00:10:07;28.13;53.92
6052;DHT22;3054;51.204;4.430;2022-08-04T00:12:36;28.10;53.94
6052;DHT22;3054;51.204;4.430;2022-08-04T00:15:05;28.09;54.04
6052;DHT22;3054;51.204;4.430;2022-08-04T00:17:39;28.08;54.04
6052;DHT22;3054;51.204;4.430;2022-08-04T00:20:08;28.03;54.17
6052;DHT22;3054;51.204;4.430;2022-08-04T00:22:39;28.02;54.23
6052;DHT22;3054;51.204;4.430;2022-08-04T00:25:08;28.00;54.27
6052;DHT22;3054;51.204;4.430;2022-08-04T00:27:35;27.98;54.37
6052;DHT22;3054;51.204;4.430;2022-08-04T00:30:03;27.95;54.46
6052;DHT22;3054;51.204;4.430;2022-08-04T00:32:31;27.94;54.47
6052;DHT22;3054;51.204;4.430;2022-08-04T00:34:59;27.91;54.57
6052;DHT22;3054;51.204;4.430;2022-08-04T00:37:26;27.88;54.69
6052;DHT22;3054;51.204;4.430;2022-08-04T00:39:54;27.87;54.70
6052;DHT22;3054;51.204;4.430;2022-08-04T00:42:40;27.86;54.73
6052;DHT22;3054;51.204;4.430;2022-08-04T00:45:29;27.86;54.76
6052;DHT22;3054;51.204;4.430;2022-08-04T00:48:08;27.85;54.77
6052;DHT22;3054;51.204;4.430;2022-08-04T00:50:43;27.83;54.87
6052;DHT22;3054;51.204;4.430;2022-08-04T00:53:21;27.81;54.97
6052;DHT22;3054;51.204;4.430;2022-08-04T00:56:14;27.78;55.07
6052;DHT22;3054;51.204;4.430;2022-08-04T00:58:58;27.76;55.07
6052;DHT22;3054;51.204;4.430;2022-08-04T01:01:43;27.79;55.07
6052;DHT22;3054;51.204;4.430;2022-08-04T01:04:19;27.76;55.14
6052;DHT22;3054;51.204;4.430;2022-08-04T01:07:01;27.74;55.24
6052;DHT22;3054;51.204;4.430;2022-08-04T01:09:43;27.69;55.39
6052;DHT22;3054;51.204;4.430;2022-08-04T01:12:30;27.67;55.52
6052;DHT22;3054;51.204;4.430;2022-08-04T01:15:05;27.67;55.63
6052;DHT22;3054;51.204;4.430;2022-08-04T01:17:53;27.63;55.74
6052;DHT22;3054;51.204;4.430;2022-08-04T01:20:25;27.60;55.82
6052;DHT22;3054;51.204;4.430;2022-08-04T01:23:28;27.58;55.90
6052;DHT22;3054;51.204;4.430;2022-08-04T01:29:09;27.53;56.13
6052;DHT22;3054;51.204;4.430;2022-08-04T01:31:52;27.54;56.12
6052;DHT22;3054;51.204;4.430;2022-08-04T01:34:22;27.51;56.15
6052;DHT22;3054;51.204;4.430;2022-08-04T01:36:58;27.51;56.13
6052;DHT22;3054;51.204;4.430;2022-08-04T01:39:33;27.49;56.25
6052;DHT22;3054;51.204;4.430;2022-08-04T01:42:07;27.44;56.35
6052;DHT22;3054;51.204;4.430;2022-08-04T01:44:38;27.42;56.43
6052;DHT22;3054;51.204;4.430;2022-08-04T01:47:06;27.43;56.44
6052;DHT22;3054;51.204;4.430;2022-08-04T01:49:36;27.42;56.48
6052;DHT22;3054;51.204;4.430;2022-08-04T01:52:06;27.42;56.45
6052;DHT22;3054;51.204;4.430;2022-08-04T01:54:37;27.42;56.43
6052;DHT22;3054;51.204;4.430;2022-08-04T01:57:05;27.37;56.51
6052;DHT22;3054;51.204;4.430;2022-08-04T01:59:33;27.38;56.52
6052;DHT22;3054;51.204;4.430;2022-08-04T02:02:02;27.34;56.63
6052;DHT22;3054;51.204;4.430;2022-08-04T02:04:29;27.34;56.65
6052;DHT22;3054;51.204;4.430;2022-08-04T02:07:06;27.32;56.68
6052;DHT22;3054;51.204;4.430;2022-08-04T02:09:40;27.31;56.65
6052;DHT22;3054;51.204;4.430;2022-08-04T02:12:16;27.28;56.71
6052;DHT22;3054;51.204;4.430;2022-08-04T02:14:52;27.29;56.73
6052;DHT22;3054;51.204;4.430;2022-08-04T02:17:28;27.30;56.77
6052;DHT22;3054;51.204;4.430;2022-08-04T02:20:08;27.26;56.89
6052;DHT22;3054;51.204;4.430;2022-08-04T02:22:48;27.25;57.00
6052;DHT22;3054;51.204;4.430;2022-08-04T02:25:21;27.26;57.11
6052;DHT22;3054;51.204;4.430;2022-08-04T02:27:55;27.24;57.32
6052;DHT22;3054;51.204;4.430;2022-08-04T02:30:30;27.22;57.63
6052;DHT22;3054;51.204;4.430;2022-08-04T02:33:02;27.17;57.93
6052;DHT22;3054;51.204;4.430;2022-08-04T02:35:34;27.21;58.06
6052;DHT22;3054;51.204;4.430;2022-08-04T02:38:10;27.16;58.35
6052;DHT22;3054;51.204;4.430;2022-08-04T02:40:38;27.13;58.58
6052;DHT22;3054;51.204;4.430;2022-08-04T02:43:07;27.12;58.83
6052;DHT22;3054;51.204;4.430;2022-08-04T02:45:35;27.13;58.93
6052;DHT22;3054;51.204;4.430;2022-08-04T02:48:04;27.12;59.16
6052;DHT22;3054;51.204;4.430;2022-08-04T02:50:34;27.14;59.21
6052;DHT22;3054;51.204;4.430;2022-08-04T02:53:03;27.12;59.37
6052;DHT22;3054;51.204;4.430;2022-08-04T02:55:32;27.10;59.51
6052;DHT22;3054;51.204;4.430;2022-08-04T02:58:02;27.07;59.70
6052;DHT22;3054;51.204;4.430;2022-08-04T03:00:29;27.06;59.80
6052;DHT22;3054;51.204;4.430;2022-08-04T03:03:06;27.04;59.97
6052;DHT22;3054;51.204;4.430;2022-08-04T03:05:45;27.01;60.04
6052;DHT22;3054;51.204;4.430;2022-08-04T03:08:59;26.98;60.15
6052;DHT22;3054;51.204;4.430;2022-08-04T03:11:55;26.97;60.28
6052;DHT22;3054;51.204;4.430;2022-08-04T03:18:14;26.91;60.57
6052;DHT22;3054;51.204;4.430;2022-08-04T03:21:13;26.89;60.67
6052;DHT22;3054;51.204;4.430;2022-08-04T03:27:07;26.82;60.92
6052;DHT22;3054;51.204;4.430;2022-08-04T03:30:04;26.84;60.83
6052;DHT22;3054;51.204;4.430;2022-08-04T03:32:55;26.81;60.98
6052;DHT22;3054;51.204;4.430;2022-08-04T03:35:40;26.80;61.02
6052;DHT22;3054;51.204;4.430;2022-08-04T03:38:39;26.79;61.14
6052;DHT22;3054;51.204;4.430;2022-08-04T03:41:30;26.77;61.23
6052;DHT22;3054;51.204;4.430;2022-08-04T03:44:23;26.73;61.33
6052;DHT22;3054;51.204;4.430;2022-08-04T03:47:27;26.71;61.41
6052;DHT22;3054;51.204;4.430;2022-08-04T03:50:21;26.68;61.50
6052;DHT22;3054;51.204;4.430;2022-08-04T03:53:16;26.64;61.57
6052;DHT22;3054;51.204;4.430;2022-08-04T03:56:23;26.65;61.48
6052;DHT22;3054;51.204;4.430;2022-08-04T03:59:10;26.63;61.50
6052;DHT22;3054;51.204;4.430;2022-08-04T04:05:07;26.60;61.44
6052;DHT22;3054;51.204;4.430;2022-08-04T04:07:58;26.57;61.38
6052;DHT22;3054;51.204;4.430;2022-08-04T04:11:01;26.53;61.44
6052;DHT22;3054;51.204;4.430;2022-08-04T04:13:48;26.53;61.44
6052;DHT22;3054;51.204;4.430;2022-08-04T04:16:31;26.52;61.44
6052;DHT22;3054;51.204;4.430;2022-08-04T04:19:22;26.52;61.50
6052;DHT22;3054;51.204;4.430;2022-08-04T04:22:01;26.53;61.46
6052;DHT22;3054;51.204;4.430;2022-08-04T04:24:48;26.54;61.47
6052;DHT22;3054;51.204;4.430;2022-08-04T04:27:30;26.54;61.42
6052;DHT22;3054;51.204;4.430;2022-08-04T04:30:04;26.54;61.38
6052;DHT22;3054;51.204;4.430;2022-08-04T04:32:47;26.54;61.40
6052;DHT22;3054;51.204;4.430;2022-08-04T04:35:27;26.55;61.39
6052;DHT22;3054;51.204;4.430;2022-08-04T04:38:20;26.55;61.34
6052;DHT22;3054;51.204;4.430;2022-08-04T04:40:55;26.54;61.29
6052;DHT22;3054;51.204;4.430;2022-08-04T04:43:42;26.54;61.21
6052;DHT22;3054;51.204;4.430;2022-08-04T04:46:25;26.54;61.08
6052;DHT22;3054;51.204;4.430;2022-08-04T04:48:57;26.55;60.99
6052;DHT22;3054;51.204;4.430;2022-08-04T04:51:32;26.55;60.90
6052;DHT22;3054;51.204;4.430;2022-08-04T04:54:05;26.56;60.78
6052;DHT22;3054;51.204;4.430;2022-08-04T04:56:39;26.60;60.67
6052;DHT22;3054;51.204;4.430;2022-08-04T04:59:14;26.60;60.57
6052;DHT22;3054;51.204;4.430;2022-08-04T05:08:12;26.60;60.36
6052;DHT22;3054;51.204;4.430;2022-08-04T05:11:01;26.62;60.24
6052;DHT22;3054;51.204;4.430;2022-08-04T05:13:36;26.64;60.12
6052;DHT22;3054;51.204;4.430;2022-08-04T05:16:09;26.67;59.90
6052;DHT22;3054;51.204;4.430;2022-08-04T05:18:39;26.67;59.78
6052;DHT22;3054;51.204;4.430;2022-08-04T05:21:26;26.69;59.66
6052;DHT22;3054;51.204;4.430;2022-08-04T05:23:57;26.70;59.57
6052;DHT22;3054;51.204;4.430;2022-08-04T05:26:30;26.73;59.42
6052;DHT22;3054;51.204;4.430;2022-08-04T05:28:58;26.73;59.40
6052;DHT22;3054;51.204;4.430;2022-08-04T05:31:33;26.72;59.36
6052;DHT22;3054;51.204;4.430;2022-08-04T05:34:07;26.75;59.27
6052;DHT22;3054;51.204;4.430;2022-08-04T05:36:38;26.72;59.31
6052;DHT22;3054;51.204;4.430;2022-08-04T05:39:10;26.75;59.30
6052;DHT22;3054;51.204;4.430;2022-08-04T05:41:38;26.76;59.28
6052;DHT22;3054;51.204;4.430;2022-08-04T05:44:07;26.77;59.32
6052;DHT22;3054;51.204;4.430;2022-08-04T05:46:35;26.78;59.38
6052;DHT22;3054;51.204;4.430;2022-08-04T05:49:02;26.80;59.49
6052;DHT22;3054;51.204;4.430;2022-08-04T05:51:30;26.84;59.55
6052;DHT22;3054;51.204;4.430;2022-08-04T05:53:59;26.86;59.61
6052;DHT22;3054;51.204;4.430;2022-08-04T05:56:28;26.94;59.63
6052;DHT22;3054;51.204;4.430;2022-08-04T05:58:58;26.99;59.67
6052;DHT22;3054;51.204;4.430;2022-08-04T06:01:26;27.05;59.65
6052;DHT22;3054;51.204;4.430;2022-08-04T06:03:55;27.10;59.77
6052;DHT22;3054;51.204;4.430;2022-08-04T06:06:22;27.15;59.78
6052;DHT22;3054;51.204;4.430;2022-08-04T06:08:50;27.22;59.81
6052;DHT22;3054;51.204;4.430;2022-08-04T06:11:18;27.29;59.77
6052;DHT22;3054;51.204;4.430;2022-08-04T06:13:50;27.35;59.80
6052;DHT22;3054;51.204;4.430;2022-08-04T06:16:21;27.37;59.90
6052;DHT22;3054;51.204;4.430;2022-08-04T06:18:50;27.44;59.86
6052;DHT22;3054;51.204;4.430;2022-08-04T06:21:21;27.60;59.73
6052;DHT22;3054;51.204;4.430;2022-08-04T06:23:49;27.72;59.56
6052;DHT22;3054;51.204;4.430;2022-08-04T06:26:17;27.81;59.44
6052;DHT22;3054;51.204;4.430;2022-08-04T06:28:45;27.84;59.51
6052;DHT22;3054;51.204;4.430;2022-08-04T06:31:16;27.93;59.40
6052;DHT22;3054;51.204;4.430;2022-08-04T06:33:48;27.99;59.36
6052;DHT22;3054;51.204;4.430;2022-08-04T06:36:17;27.95;59.52
6052;DHT22;3054;51.204;4.430;2022-08-04T06:38:47;28.08;59.35
6052;DHT22;3054;51.204;4.430;2022-08-04T06:41:15;28.04;59.48
6052;DHT22;3054;51.204;4.430;2022-08-04T06:43:42;28.11;59.46
6052;DHT22;3054;51.204;4.430;2022-08-04T06:46:09;28.15;59.44
6052;DHT22;3054;51.204;4.430;2022-08-04T06:48:37;28.27;59.18
6052;DHT22;3054;51.204;4.430;2022-08-04T06:51:04;28.21;59.41
6052;DHT22;3054;51.204;4.430;2022-08-04T06:53:31;28.16;59.64
6052;DHT22;3054;51.204;4.430;2022-08-04T06:56:00;28.38;59.30
6052;DHT22;3054;51.204;4.430;2022-08-04T06:58:29;28.73;58.58
6052;DHT22;3054;51.204;4.430;2022-08-04T07:00:58;28.87;58.31
6052;DHT22;3054;51.204;4.430;2022-08-04T07:03:27;28.93;58.25
6052;DHT22;3054;51.204;4.430;2022-08-04T07:05:54;28.92;58.41
6052;DHT22;3054;51.204;4.430;2022-08-04T07:08:21;29.18;58.00
6052;DHT22;3054;51.204;4.430;2022-08-04T07:10:48;29.39;57.60
6052;DHT22;3054;51.204;4.430;2022-08-04T07:13:19;29.49;57.41
6052;DHT22;3054;51.204;4.430;2022-08-04T07:15:47;29.64;57.18
6052;DHT22;3054;51.204;4.430;2022-08-04T07:18:15;29.71;57.00
6052;DHT22;3054;51.204;4.430;2022-08-04T07:20:42;29.66;57.13
6052;DHT22;3054;51.204;4.430;2022-08-04T07:23:11;29.75;57.09
6052;DHT22;3054;51.204;4.430;2022-08-04T07:25:42;29.92;56.77
6052;DHT22;3054;51.204;4.430;2022-08-04T07:28:09;30.08;56.48
6052;DHT22;3054;51.204;4.430;2022-08-04T07:30:38;30.17;56.29
6052;DHT22;3054;51.204;4.430;2022-08-04T07:33:06;30.25;56.10
6052;DHT22;3054;51.204;4.430;2022-08-04T07:35:34;30.25;56.08
6052;DHT22;3054;51.204;4.430;2022-08-04T07:38:00;30.27;56.10
6052;DHT22;3054;51.204;4.430;2022-08-04T07:40:28;30.19;56.23
6052;DHT22;3054;51.204;4.430;2022-08-04T07:42:55;30.08;56.48
6052;DHT22;3054;51.204;4.430;2022-08-04T07:45:23;30.05;56.49
6052;DHT22;3054;51.204;4.430;2022-08-04T07:47:52;30.15;56.31
6052;DHT22;3054;51.204;4.430;2022-08-04T07:50:19;30.49;55.53
6052;DHT22;3054;51.204;4.430;2022-08-04T07:52:47;30.71;55.08
6052;DHT22;3054;51.204;4.430;2022-08-04T07:55:16;30.74;55.10
6052;DHT22;3054;51.204;4.430;2022-08-04T07:57:44;30.72;55.07
6052;DHT22;3054;51.204;4.430;2022-08-04T08:00:12;30.80;54.84
6052;DHT22;3054;51.204;4.430;2022-08-04T08:02:39;30.74;54.91
6052;DHT22;3054;51.204;4.430;2022-08-04T08:05:09;30.63;54.95
6052;DHT22;3054;51.204;4.430;2022-08-04T08:07:38;30.48;55.20
6052;DHT22;3054;51.204;4.430;2022-08-04T08:10:11;30.33;55.50
6052;DHT22;3054;51.204;4.430;2022-08-04T08:12:38;30.17;55.74
6052;DHT22;3054;51.204;4.430;2022-08-04T08:15:07;30.03;55.93
6052;DHT22;3054;51.204;4.430;2022-08-04T08:17:36;29.91;56.10
6052;DHT22;3054;51.204;4.430;2022-08-04T08:20:08;29.78;56.35
6052;DHT22;3054;51.204;4.430;2022-08-04T08:22:37;29.70;56.42
6052;DHT22;3054;51.204;4.430;2022-08-04T08:25:04;29.60;56.51
6052;DHT22;3054;51.204;4.430;2022-08-04T08:27:31;29.43;56.70
6052;DHT22;3054;51.204;4.430;2022-08-04T08:30:02;29.34;56.69
6052;DHT22;3054;51.204;4.430;2022-08-04T08:32:29;29.22;56.86
6052;DHT22;3054;51.204;4.430;2022-08-04T08:34:56;29.13;56.97
6052;DHT22;3054;51.204;4.430;2022-08-04T08:37:30;29.01;57.02
6052;DHT22;3054;51.204;4.430;2022-08-04T08:40:15;28.90;57.05
6052;DHT22;3054;51.204;4.430;2022-08-04T08:43:04;28.80;57.20
6052;DHT22;3054;51.204;4.430;2022-08-04T08:45:50;28.74;57.42
6052;DHT22;3054;51.204;4.430;2022-08-04T08:51:39;28.61;57.98
6052;DHT22;3054;51.204;4.430;2022-08-04T08:54:23;28.55;58.29
6052;DHT22;3054;51.204;4.430;2022-08-04T08:57:10;28.42;58.93
6052;DHT22;3054;51.204;4.430;2022-08-04T08:59:56;28.34;59.32
6052;DHT22;3054;51.204;4.430;2022-08-04T09:06:05;28.17;60.20
6052;DHT22;3054;51.204;4.430;2022-08-04T09:08:53;28.23;60.29
6052;DHT22;3054;51.204;4.430;2022-08-04T09:11:23;28.15;60.64
6052;DHT22;3054;51.204;4.430;2022-08-04T09:13:55;28.06;61.30
6052;DHT22;3054;51.204;4.430;2022-08-04T09:16:30;27.96;61.77
6052;DHT22;3054;51.204;4.430;2022-08-04T09:19:05;27.88;62.28
6052;DHT22;3054;51.204;4.430;2022-08-04T09:21:38;27.82;62.70
6052;DHT22;3054;51.204;4.430;2022-08-04T09:24:11;27.78;62.95
6052;DHT22;3054;51.204;4.430;2022-08-04T09:26:45;27.74;63.24
6052;DHT22;3054;51.204;4.430;2022-08-04T09:29:18;27.67;63.56
6052;DHT22;3054;51.204;4.430;2022-08-04T09:31:52;27.57;63.87
6052;DHT22;3054;51.204;4.430;2022-08-04T09:34:30;27.52;64.00
6052;DHT22;3054;51.204;4.430;2022-08-04T09:37:03;27.47;63.98
6052;DHT22;3054;51.204;4.430;2022-08-04T09:39:44;27.43;63.84
6052;DHT22;3054;51.204;4.430;2022-08-04T09:42:19;27.42;64.20
6052;DHT22;3054;51.204;4.430;2022-08-04T09:44:54;27.40;64.61
6052;DHT22;3054;51.204;4.430;2022-08-04T09:47:29;27.40;64.80
6052;DHT22;3054;51.204;4.430;2022-08-04T09:50:03;27.41;65.18
6052;DHT22;3054;51.204;4.430;2022-08-04T09:52:43;27.44;65.29
6052;DHT22;3054;51.204;4.430;2022-08-04T09:55:18;27.47;65.50
6052;DHT22;3054;51.204;4.430;2022-08-04T09:57:54;27.49;65.64
6052;DHT22;3054;51.204;4.430;2022-08-04T10:00:28;27.53;65.58
6052;DHT22;3054;51.204;4.430;2022-08-04T10:02:57;27.63;65.50
6052;DHT22;3054;51.204;4.430;2022-08-04T10:05:41;27.73;65.31
6052;DHT22;3054;51.204;4.430;2022-08-04T10:08:22;27.78;65.24
6052;DHT22;3054;51.204;4.430;2022-08-04T10:10:58;27.73;65.24
6052;DHT22;3054;51.204;4.430;2022-08-04T10:13:43;27.80;65.27
6052;DHT22;3054;51.204;4.430;2022-08-04T10:16:33;27.79;65.40
6052;DHT22;3054;51.204;4.430;2022-08-04T10:19:09;27.76;65.56
6052;DHT22;3054;51.204;4.430;2022-08-04T10:21:47;27.82;65.48
6052;DHT22;3054;51.204;4.430;2022-08-04T10:24:41;27.89;65.15
6052;DHT22;3054;51.204;4.430;2022-08-04T10:27:18;28.09;64.50
6052;DHT22;3054;51.204;4.430;2022-08-04T10:29:48;28.83;62.70
6052;DHT22;3054;51.204;4.430;2022-08-04T10:32:20;30.07;59.50
6052;DHT22;3054;51.204;4.430;2022-08-04T10:35:00;34.37;50.69
6052;DHT22;3054;51.204;4.430;2022-08-04T10:37:30;34.05;50.69
6052;DHT22;3054;51.204;4.430;2022-08-04T10:40:01;36.18;48.33
6052;DHT22;3054;51.204;4.430;2022-08-04T10:42:49;38.53;43.38
6052;DHT22;3054;51.204;4.430;2022-08-04T10:45:21;41.14;40.12
6052;DHT22;3054;51.204;4.430;2022-08-04T10:47:58;43.05;36.17
6052;DHT22;3054;51.204;4.430;2022-08-04T10:50:26;42.97;34.79
6052;DHT22;3054;51.204;4.430;2022-08-04T10:52:57;41.74;36.09
6052;DHT22;3054;51.204;4.430;2022-08-04T10:55:30;40.35;36.97
6052;DHT22;3054;51.204;4.430;2022-08-04T10:58:00;38.36;39.34
6052;DHT22;3054;51.204;4.430;2022-08-04T11:00:32;37.56;40.60
6052;DHT22;3054;51.204;4.430;2022-08-04T11:03:06;36.89;40.97
6052;DHT22;3054;51.204;4.430;2022-08-04T11:05:40;36.06;41.94
6052;DHT22;3054;51.204;4.430;2022-08-04T11:08:14;35.20;42.97
6052;DHT22;3054;51.204;4.430;2022-08-04T11:10:47;34.63;43.96
6052;DHT22;3054;51.204;4.430;2022-08-04T11:13:16;34.26;44.20
6052;DHT22;3054;51.204;4.430;2022-08-04T11:15:46;33.62;44.72
6052;DHT22;3054;51.204;4.430;2022-08-04T11:18:23;33.45;44.70
6052;DHT22;3054;51.204;4.430;2022-08-04T11:20:55;33.68;44.46
6052;DHT22;3054;51.204;4.430;2022-08-04T11:23:28;34.29;42.80
6052;DHT22;3054;51.204;4.430;2022-08-04T11:26:05;34.88;41.79
6052;DHT22;3054;51.204;4.430;2022-08-04T11:28:45;35.34;40.94
6052;DHT22;3054;51.204;4.430;2022-08-04T11:31:19;36.59;38.98
6052;DHT22;3054;51.204;4.430;2022-08-04T11:33:51;37.94;38.59
6052;DHT22;3054;51.204;4.430;2022-08-04T11:36:26;41.40;32.15
6052;DHT22;3054;51.204;4.430;2022-08-04T11:38:58;41.96;32.36
6052;DHT22;3054;51.204;4.430;2022-08-04T11:41:38;42.73;29.57
6052;DHT22;3054;51.204;4.430;2022-08-04T11:44:06;41.29;30.58
6052;DHT22;3054;51.204;4.430;2022-08-04T11:46:41;40.93;31.46
6052;DHT22;3054;51.204;4.430;2022-08-04T11:49:25;41.40;31.04
6052;DHT22;3054;51.204;4.430;2022-08-04T11:51:54;41.61;30.22
6052;DHT22;3054;51.204;4.430;2022-08-04T11:54:21;44.38;27.91
6052;DHT22;3054;51.204;4.430;2022-08-04T11:56:48;44.57;27.13
6052;DHT22;3054;51.204;4.430;2022-08-04T11:59:15;44.25;26.36
6052;DHT22;3054;51.204;4.430;2022-08-04T12:01:54;42.70;27.92
6052;DHT22;3054;51.204;4.430;2022-08-04T12:04:33;41.03;29.90
6052;DHT22;3054;51.204;4.430;2022-08-04T12:07:09;39.88;31.25
6052;DHT22;3054;51.204;4.430;2022-08-04T12:09:47;39.14;32.04
6052;DHT22;3054;51.204;4.430;2022-08-04T12:12:19;38.34;32.85
6052;DHT22;3054;51.204;4.430;2022-08-04T12:14:57;37.50;34.13
6052;DHT22;3054;51.204;4.430;2022-08-04T12:17:30;37.22;34.37
6052;DHT22;3054;51.204;4.430;2022-08-04T12:20:02;36.97;34.37
6052;DHT22;3054;51.204;4.430;2022-08-04T12:22:34;36.54;34.99
6052;DHT22;3054;51.204;4.430;2022-08-04T12:25:06;36.33;35.44
6052;DHT22;3054;51.204;4.430;2022-08-04T12:27:36;36.30;35.55
6052;DHT22;3054;51.204;4.430;2022-08-04T12:30:07;36.25;35.48
6052;DHT22;3054;51.204;4.430;2022-08-04T12:32:37;36.03;35.49
6052;DHT22;3054;51.204;4.430;2022-08-04T12:35:13;35.78;35.82
6052;DHT22;3054;51.204;4.430;2022-08-04T12:37:47;35.60;36.14
6052;DHT22;3054;51.204;4.430;2022-08-04T12:40:19;35.55;36.38
6052;DHT22;3054;51.204;4.430;2022-08-04T12:42:54;35.50;36.38
6052;DHT22;3054;51.204;4.430;2022-08-04T12:45:23;35.31;36.50
6052;DHT22;3054;51.204;4.430;2022-08-04T12:47:52;35.10;36.96
6052;DHT22;3054;51.204;4.430;2022-08-04T12:50:21;34.93;37.33
6052;DHT22;3054;51.204;4.430;2022-08-04T12:52:51;34.71;37.54
6052;DHT22;3054;51.204;4.430;2022-08-04T12:55:23;34.38;37.83
6052;DHT22;3054;51.204;4.430;2022-08-04T12:57:52;34.17;38.31
6052;DHT22;3054;51.204;4.430;2022-08-04T13:00:24;34.01;38.70
6052;DHT22;3054;51.204;4.430;2022-08-04T13:02:52;33.97;38.82
6052;DHT22;3054;51.204;4.430;2022-08-04T13:05:22;33.96;39.10
6052;DHT22;3054;51.204;4.430;2022-08-04T13:07:52;33.91;39.25
6052;DHT22;3054;51.204;4.430;2022-08-04T13:10:21;33.88;39.49
6052;DHT22;3054;51.204;4.430;2022-08-04T13:12:55;33.82;39.56
6052;DHT22;3054;51.204;4.430;2022-08-04T13:15:24;33.83;39.62
6052;DHT22;3054;51.204;4.430;2022-08-04T13:17:54;33.82;39.57
6052;DHT22;3054;51.204;4.430;2022-08-04T13:20:26;33.78;39.56
6052;DHT22;3054;51.204;4.430;2022-08-04T13:22:58;33.76;39.43
6052;DHT22;3054;51.204;4.430;2022-08-04T13:25:28;33.85;39.23
6052;DHT22;3054;51.204;4.430;2022-08-04T13:27:55;33.88;39.26
6052;DHT22;3054;51.204;4.430;2022-08-04T13:30:24;33.97;39.27
6052;DHT22;3054;51.204;4.430;2022-08-04T13:32:54;33.93;39.38
6052;DHT22;3054;51.204;4.430;2022-08-04T13:35:22;33.91;39.36
6052;DHT22;3054;51.204;4.430;2022-08-04T13:37:53;33.85;39.33
6052;DHT22;3054;51.204;4.430;2022-08-04T13:40:22;33.73;39.31
6052;DHT22;3054;51.204;4.430;2022-08-04T13:42:51;33.70;39.31
6052;DHT22;3054;51.204;4.430;2022-08-04T13:45:20;33.62;39.42
6052;DHT22;3054;51.204;4.430;2022-08-04T13:47:48;33.61;39.40
6052;DHT22;3054;51.204;4.430;2022-08-04T13:50:18;33.58;39.46
6052;DHT22;3054;51.204;4.430;2022-08-04T13:52:51;33.52;39.44
6052;DHT22;3054;51.204;4.430;2022-08-04T13:55:24;33.41;39.62
6052;DHT22;3054;51.204;4.430;2022-08-04T13:57:57;33.20;39.78
6052;DHT22;3054;51.204;4.430;2022-08-04T14:00:38;33.13;39.85
6052;DHT22;3054;51.204;4.430;2022-08-04T14:03:07;33.05;40.00
6052;DHT22;3054;51.204;4.430;2022-08-04T14:05:34;33.14;40.01
6052;DHT22;3054;51.204;4.430;2022-08-04T14:08:08;33.08;40.05
6052;DHT22;3054;51.204;4.430;2022-08-04T14:10:38;33.01;40.26
6052;DHT22;3054;51.204;4.430;2022-08-04T14:13:06;33.11;40.17
6052;DHT22;3054;51.204;4.430;2022-08-04T14:15:35;33.15;39.94
6052;DHT22;3054;51.204;4.430;2022-08-04T14:18:17;33.14;40.05
6052;DHT22;3054;51.204;4.430;2022-08-04T14:20:58;33.13;40.17
6052;DHT22;3054;51.204;4.430;2022-08-04T14:23:27;33.08;40.26
6052;DHT22;3054;51.204;4.430;2022-08-04T14:25:55;33.18;40.23
6052;DHT22;3054;51.204;4.430;2022-08-04T14:28:28;33.25;40.33
6052;DHT22;3054;51.204;4.430;2022-08-04T14:31:08;33.27;40.41
6052;DHT22;3054;51.204;4.430;2022-08-04T14:33:39;33.35;40.26
6052;DHT22;3054;51.204;4.430;2022-08-04T14:36:07;33.25;40.42
6052;DHT22;3054;51.204;4.430;2022-08-04T14:38:44;33.22;40.64
6052;DHT22;3054;51.204;4.430;2022-08-04T14:41:12;33.21;40.81
6052;DHT22;3054;51.204;4.430;2022-08-04T14:43:42;33.18;41.00
6052;DHT22;3054;51.204;4.430;2022-08-04T14:46:09;33.18;41.11
6052;DHT22;3054;51.204;4.430;2022-08-04T14:48:40;33.08;41.32
6052;DHT22;3054;51.204;4.430;2022-08-04T14:51:24;33.05;41.42
6052;DHT22;3054;51.204;4.430;2022-08-04T14:53:53;32.91;41.62
6052;DHT22;3054;51.204;4.430;2022-08-04T14:56:19;32.77;41.84
6052;DHT22;3054;51.204;4.430;2022-08-04T14:58:58;32.63;41.98
6052;DHT22;3054;51.204;4.430;2022-08-04T15:01:26;32.48;42.19
6052;DHT22;3054;51.204;4.430;2022-08-04T15:03:53;32.38;42.32
6052;DHT22;3054;51.204;4.430;2022-08-04T15:06:23;32.26;42.58
6052;DHT22;3054;51.204;4.430;2022-08-04T15:08:53;32.16;42.79
6052;DHT22;3054;51.204;4.430;2022-08-04T15:11:20;32.11;42.95
6052;DHT22;3054;51.204;4.430;2022-08-04T15:13:47;31.98;43.11
6052;DHT22;3054;51.204;4.430;2022-08-04T15:16:14;31.92;43.29
6052;DHT22;3054;51.204;4.430;2022-08-04T15:18:41;31.86;43.48
6052;DHT22;3054;51.204;4.430;2022-08-04T15:21:09;31.78;43.57
6052;DHT22;3054;51.204;4.430;2022-08-04T15:23:36;31.78;43.65
6052;DHT22;3054;51.204;4.430;2022-08-04T15:26:07;31.79;43.71
6052;DHT22;3054;51.204;4.430;2022-08-04T15:28:35;31.80;43.73
6052;DHT22;3054;51.204;4.430;2022-08-04T15:31:05;31.81;43.66
6052;DHT22;3054;51.204;4.430;2022-08-04T15:33:34;31.78;43.65
6052;DHT22;3054;51.204;4.430;2022-08-04T15:36:14;31.72;43.77
6052;DHT22;3054;51.204;4.430;2022-08-04T15:38:49;31.65;44.00
6052;DHT22;3054;51.204;4.430;2022-08-04T15:41:28;31.56;44.09
6052;DHT22;3054;51.204;4.430;2022-08-04T15:47:12;31.34;44.55
6052;DHT22;3054;51.204;4.430;2022-08-04T15:49:39;31.30;44.64
6052;DHT22;3054;51.204;4.430;2022-08-04T15:52:09;31.20;44.80
6052;DHT22;3054;51.204;4.430;2022-08-04T15:54:37;31.14;45.00
6052;DHT22;3054;51.204;4.430;2022-08-04T15:57:06;31.09;45.12
6052;DHT22;3054;51.204;4.430;2022-08-04T15:59:58;31.01;45.32
6052;DHT22;3054;51.204;4.430;2022-08-04T16:02:44;30.97;45.44
6052;DHT22;3054;51.204;4.430;2022-08-04T16:05:38;30.97;45.56
6052;DHT22;3054;51.204;4.430;2022-08-04T16:08:11;30.91;45.69
6052;DHT22;3054;51.204;4.430;2022-08-04T16:10:40;30.83;45.85
6052;DHT22;3054;51.204;4.430;2022-08-04T16:13:09;30.82;45.93
6052;DHT22;3054;51.204;4.430;2022-08-04T16:15:43;30.76;46.02
6052;DHT22;3054;51.204;4.430;2022-08-04T16:18:11;30.75;46.10
6052;DHT22;3054;51.204;4.430;2022-08-04T16:20:44;30.77;46.07
6052;DHT22;3054;51.204;4.430;2022-08-04T16:23:27;30.75;46.13
6052;DHT22;3054;51.204;4.430;2022-08-04T16:25:57;30.72;46.14
6052;DHT22;3054;51.204;4.430;2022-08-04T16:28:39;30.67;46.19
6052;DHT22;3054;51.204;4.430;2022-08-04T16:31:09;30.62;46.33
6052;DHT22;3054;51.204;4.430;2022-08-04T16:33:37;30.55;46.44
6052;DHT22;3054;51.204;4.430;2022-08-04T16:36:07;30.50;46.48
6052;DHT22;3054;51.204;4.430;2022-08-04T16:38:59;30.40;46.62
6052;DHT22;3054;51.204;4.430;2022-08-04T16:41:38;30.32;46.77
6052;DHT22;3054;51.204;4.430;2022-08-04T16:44:39;30.25;46.84
6052;DHT22;3054;51.204;4.430;2022-08-04T16:47:07;30.22;46.88
6052;DHT22;3054;51.204;4.430;2022-08-04T16:49:34;30.19;46.86
6052;DHT22;3054;51.204;4.430;2022-08-04T16:52:02;30.18;46.82
6052;DHT22;3054;51.204;4.430;2022-08-04T16:54:29;30.17;46.76
6052;DHT22;3054;51.204;4.430;2022-08-04T16:56:57;30.17;46.70
6052;DHT22;3054;51.204;4.430;2022-08-04T16:59:24;30.18;46.51
6052;DHT22;3054;51.204;4.430;2022-08-04T17:01:54;30.21;46.37
6052;DHT22;3054;51.204;4.430;2022-08-04T17:04:28;30.26;46.21
6052;DHT22;3054;51.204;4.430;2022-08-04T17:06:59;30.21;46.16
6052;DHT22;3054;51.204;4.430;2022-08-04T17:09:26;30.16;46.09
6052;DHT22;3054;51.204;4.430;2022-08-04T17:11:56;30.09;46.09
6052;DHT22;3054;51.204;4.430;2022-08-04T17:14:25;30.10;46.01
6052;DHT22;3054;51.204;4.430;2022-08-04T17:16:56;30.09;45.87